sensor_id;sensor_type;location;lat;lon;timestamp;temperature;humidity
38458;DHT22;24239;48.058;10.486;2023-06-04T00:00:58;11.90;99.90
38458;DHT22;24239;48.058;10.486;2023-06-04T00:03:24;11.90;99.90
38458;DHT22;24239;48.058;10.486;2023-06-04T00:05:50;11.80;99.90
38458;DHT22;24239;48.058;10.486;2023-06-04T00:08:18;11.90;99.90
38458;DHT22;24239;48.058;10.486;2023-06-04T00:10:47;12.00;99.90
38458;DHT22;24239;48.058;10.486;2023-06-04T00:13:16;12.10;99.90
38458;DHT22;24239;48.058;10.486;2023-06-04T00:15:45;12.20;99.90
38458;DHT22;24239;48.058;10.486;2023-06-04T00:18:14;12.30;99.90
38458;DHT22;24239;48.058;10.486;2023-06-04T00:20:43;12.30;99.90
38458;DHT22;24239;48.058;10.486;2023-06-04T00:23:08;12.20;99.90
38458;DHT22;24239;48.058;10.486;2023-06-04T00:25:34;12.20;99.90
38458;DHT22;24239;48.058;10.486;2023-06-04T00:28:02;12.10;99.90
38458;DHT22;24239;48.058;10.486;2023-06-04T00:30:31;12.20;99.90
38458;DHT22;24239;48.058;10.486;2023-06-04T00:32:58;12.00;99.90
38458;DHT22;24239;48.058;10.486;2023-06-04T00:35:24;11.90;99.90
38458;DHT22;24239;48.058;10.486;2023-06-04T00:37:49;11.80;99.90
38458;DHT22;24239;48.058;10.486;2023-06-04T00:40:16;11.80;99.90
38458;DHT22;24239;48.058;10.486;2023-06-04T00:42:44;11.60;99.90
38458;DHT22;24239;48.058;10.486;2023-06-04T00:45:12;11.50;99.90
38458;DHT22;24239;48.058;10.486;2023-06-04T00:47:45;11.50;99.90
38458;DHT22;24239;48.058;10.486;2023-06-04T00:50:13;11.40;99.90
38458;DHT22;24239;48.058;10.486;2023-06-04T00:52:41;11.30;99.90
38458;DHT22;24239;48.058;10.486;2023-06-04T00:55:06;11.30;99.90
38458;DHT22;24239;48.058;10.486;2023-06-04T00:57:33;11.30;99.90
38458;DHT22;24239;48.058;10.486;2023-06-04T00:59:59;11.20;99.90
38458;DHT22;24239;48.058;10.486;2023-06-04T01:02:25;11.20;99.90
38458;DHT22;24239;48.058;10.486;2023-06-04T01:05:07;11.10;99.90
38458;DHT22;24239;48.058;10.486;2023-06-04T01:07:39;11.10;99.90
38458;DHT22;24239;48.058;10.486;2023-06-04T01:10:07;11.00;99.90
38458;DHT22;24239;48.058;10.486;2023-06-04T01:12:38;11.00;99.90
38458;DHT22;24239;48.058;10.486;2023-06-04T01:15:05;10.90;99.90
38458;DHT22;24239;48.058;10.486;2023-06-04T01:28:00;10.60;99.90
38458;DHT22;24239;48.058;10.486;2023-06-04T01:30:31;10.60;99.90
38458;DHT22;24239;48.058;10.486;2023-06-04T01:32:59;10.60;99.90
38458;DHT22;24239;48.058;10.486;2023-06-04T01:35:28;10.60;99.90
38458;DHT22;24239;48.058;10.486;2023-06-04T01:38:00;10.60;99.90
38458;DHT22;24239;48.058;10.486;2023-06-04T01:40:29;10.60;99.90
38458;DHT22;24239;48.058;10.486;2023-06-04T01:42:58;10.60;99.90
38458;DHT22;24239;48.058;10.486;2023-06-04T01:45:26;10.50;99.90
38458;DHT22;24239;48.058;10.486;2023-06-04T01:47:52;10.50;99.90
38458;DHT22;24239;48.058;10.486;2023-06-04T01:50:17;10.50;99.90
38458;DHT22;24239;48.058;10.486;2023-06-04T01:52:43;10.40;99.90
38458;DHT22;24239;48.058;10.486;2023-06-04T01:55:10;10.40;99.90
38458;DHT22;24239;48.058;10.486;2023-06-04T01:57:37;10.30;99.90
38458;DHT22;24239;48.058;10.486;2023-06-04T02:00:05;10.30;99.90
38458;DHT22;24239;48.058;10.486;2023-06-04T02:02:36;10.30;99.90
38458;DHT22;24239;48.058;10.486;2023-06-04T02:05:04;10.20;99.90
38458;DHT22;24239;48.058;10.486;2023-06-04T02:07:39;10.30;99.90
38458;DHT22;24239;48.058;10.486;2023-06-04T02:10:09;10.30;99.90
38458;DHT22;24239;48.058;10.486;2023-06-04T02:12:36;10.20;99.90
38458;DHT22;24239;48.058;10.486;2023-06-04T02:15:02;10.20;99.90
38458;DHT22;24239;48.058;10.486;2023-06-04T02:17:29;10.20;99.90
38458;DHT22;24239;48.058;10.486;2023-06-04T02:20:00;10.10;99.90
38458;DHT22;24239;48.058;10.486;2023-06-04T02:22:28;10.10;99.90
38458;DHT22;24239;48.058;10.486;2023-06-04T02:24:56;10.10;99.90
38458;DHT22;24239;48.058;10.486;2023-06-04T02:27:25;10.00;99.90
38458;DHT22;24239;48.058;10.486;2023-06-04T02:29:55;10.00;99.90
38458;DHT22;24239;48.058;10.486;2023-06-04T02:32:23;10.00;99.90
38458;DHT22;24239;48.058;10.486;2023-06-04T02:34:52;10.00;99.90
38458;DHT22;24239;48.058;10.486;2023-06-04T02:37:21;9.90;99.90
38458;DHT22;24239;48.058;10.486;2023-06-04T02:39:50;9.90;99.90
38458;DHT22;24239;48.058;10.486;2023-06-04T02:42:18;9.90;99.90
38458;DHT22;24239;48.058;10.486;2023-06-04T02:44:46;9.80;99.90
38458;DHT22;24239;48.058;10.486;2023-06-04T02:47:15;9.80;99.90
38458;DHT22;24239;48.058;10.486;2023-06-04T02:49:46;9.80;99.90
38458;DHT22;24239;48.058;10.486;2023-06-04T02:52:15;9.70;99.90
38458;DHT22;24239;48.058;10.486;2023-06-04T02:54:43;9.70;99.90
38458;DHT22;24239;48.058;10.486;2023-06-04T02:57:10;9.60;99.90
38458;DHT22;24239;48.058;10.486;2023-06-04T02:59:40;9.70;99.90
38458;DHT22;24239;48.058;10.486;2023-06-04T03:02:07;9.70;99.90
38458;DHT22;24239;48.058;10.486;2023-06-04T03:04:36;9.60;99.90
38458;DHT22;24239;48.058;10.486;2023-06-04T03:07:04;9.60;99.90
38458;DHT22;24239;48.058;10.486;2023-06-04T03:09:32;9.50;99.90
38458;DHT22;24239;48.058;10.486;2023-06-04T03:11:59;9.60;99.90
38458;DHT22;24239;48.058;10.486;2023-06-04T03:14:27;9.60;99.90
38458;DHT22;24239;48.058;10.486;2023-06-04T03:17:00;9.50;99.90
38458;DHT22;24239;48.058;10.486;2023-06-04T03:19:35;9.50;99.90
38458;DHT22;24239;48.058;10.486;2023-06-04T03:22:04;9.50;99.90
38458;DHT22;24239;48.058;10.486;2023-06-04T03:24:33;9.50;99.90
38458;DHT22;24239;48.058;10.486;2023-06-04T03:26:59;9.50;99.90
38458;DHT22;24239;48.058;10.486;2023-06-04T03:29:26;9.40;99.90
38458;DHT22;24239;48.058;10.486;2023-06-04T03:31:53;9.40;99.90
38458;DHT22;24239;48.058;10.486;2023-06-04T03:34:25;9.30;99.90
38458;DHT22;24239;48.058;10.486;2023-06-04T03:36:54;9.40;99.90
38458;DHT22;24239;48.058;10.486;2023-06-04T03:39:22;9.40;99.90
38458;DHT22;24239;48.058;10.486;2023-06-04T03:41:50;9.40;99.90
38458;DHT22;24239;48.058;10.486;2023-06-04T03:44:17;9.30;99.90
38458;DHT22;24239;48.058;10.486;2023-06-04T03:46:44;9.40;99.90
38458;DHT22;24239;48.058;10.486;2023-06-04T03:49:10;9.40;99.90
38458;DHT22;24239;48.058;10.486;2023-06-04T03:51:36;9.50;99.90
38458;DHT22;24239;48.058;10.486;2023-06-04T03:54:05;9.50;99.90
38458;DHT22;24239;48.058;10.486;2023-06-04T03:56:31;9.60;99.90
38458;DHT22;24239;48.058;10.486;2023-06-04T03:58:57;9.60;99.90
38458;DHT22;24239;48.058;10.486;2023-06-04T04:01:23;9.60;99.90
38458;DHT22;24239;48.058;10.486;2023-06-04T04:03:49;9.70;99.90
38458;DHT22;24239;48.058;10.486;2023-06-04T04:06:15;10.10;99.90
38458;DHT22;24239;48.058;10.486;2023-06-04T04:08:43;10.80;99.90
38458;DHT22;24239;48.058;10.486;2023-06-04T04:11:13;11.50;99.90
38458;DHT22;24239;48.058;10.486;2023-06-04T04:13:46;12.30;99.90
38458;DHT22;24239;48.058;10.486;2023-06-04T04:16:13;13.10;99.90
38458;DHT22;24239;48.058;10.486;2023-06-04T04:18:41;13.70;99.90
38458;DHT22;24239;48.058;10.486;2023-06-04T04:21:11;14.30;99.90
38458;DHT22;24239;48.058;10.486;2023-06-04T04:23:42;15.00;99.90
38458;DHT22;24239;48.058;10.486;2023-06-04T04:26:08;15.50;99.90
38458;DHT22;24239;48.058;10.486;2023-06-04T04:28:35;16.00;99.90
38458;DHT22;24239;48.058;10.486;2023-06-04T04:31:02;16.40;99.90
38458;DHT22;24239;48.058;10.486;2023-06-04T04:33:28;16.80;99.90
38458;DHT22;24239;48.058;10.486;2023-06-04T04:36:00;17.00;99.90
38458;DHT22;24239;48.058;10.486;2023-06-04T04:38:26;17.40;99.90
38458;DHT22;24239;48.058;10.486;2023-06-04T04:40:55;17.80;99.90
38458;DHT22;24239;48.058;10.486;2023-06-04T04:43:33;17.90;99.60
38458;DHT22;24239;48.058;10.486;2023-06-04T04:46:04;18.30;99.20
38458;DHT22;24239;48.058;10.486;2023-06-04T04:48:30;18.70;97.80
38458;DHT22;24239;48.058;10.486;2023-06-04T04:50:55;18.80;97.40
38458;DHT22;24239;48.058;10.486;2023-06-04T04:53:21;19.00;97.20
38458;DHT22;24239;48.058;10.486;2023-06-04T04:55:50;19.20;96.60
38458;DHT22;24239;48.058;10.486;2023-06-04T04:58:18;19.50;96.10
38458;DHT22;24239;48.058;10.486;2023-06-04T05:00:45;19.70;95.50
38458;DHT22;24239;48.058;10.486;2023-06-04T05:03:15;20.00;95.00
38458;DHT22;24239;48.058;10.486;2023-06-04T05:05:43;20.10;94.90
38458;DHT22;24239;48.058;10.486;2023-06-04T05:08:11;20.20;94.20
38458;DHT22;24239;48.058;10.486;2023-06-04T05:10:43;20.30;94.80
38458;DHT22;24239;48.058;10.486;2023-06-04T05:13:10;20.50;94.00
38458;DHT22;24239;48.058;10.486;2023-06-04T05:15:36;20.60;93.80
38458;DHT22;24239;48.058;10.486;2023-06-04T05:18:02;20.90;93.40
38458;DHT22;24239;48.058;10.486;2023-06-04T05:20:29;20.90;93.80
38458;DHT22;24239;48.058;10.486;2023-06-04T05:22:55;21.00;93.30
38458;DHT22;24239;48.058;10.486;2023-06-04T05:25:20;20.70;92.70
38458;DHT22;24239;48.058;10.486;2023-06-04T05:27:47;20.90;92.90
38458;DHT22;24239;48.058;10.486;2023-06-04T05:30:14;20.70;92.60
38458;DHT22;24239;48.058;10.486;2023-06-04T05:32:42;20.90;92.80
38458;DHT22;24239;48.058;10.486;2023-06-04T05:35:08;20.90;92.40
38458;DHT22;24239;48.058;10.486;2023-06-04T05:37:35;21.20;92.30
38458;DHT22;24239;48.058;10.486;2023-06-04T05:40:03;20.80;92.40
38458;DHT22;24239;48.058;10.486;2023-06-04T05:42:35;21.00;92.60
38458;DHT22;24239;48.058;10.486;2023-06-04T05:45:01;21.30;92.30
38458;DHT22;24239;48.058;10.486;2023-06-04T05:47:27;21.20;92.50
38458;DHT22;24239;48.058;10.486;2023-06-04T05:49:54;21.50;92.40
38458;DHT22;24239;48.058;10.486;2023-06-04T05:52:19;21.70;92.20
38458;DHT22;24239;48.058;10.486;2023-06-04T05:54:46;21.70;91.80
38458;DHT22;24239;48.058;10.486;2023-06-04T05:57:12;21.70;91.80
38458;DHT22;24239;48.058;10.486;2023-06-04T05:59:37;21.40;92.00
38458;DHT22;24239;48.058;10.486;2023-06-04T06:02:06;21.20;92.40
38458;DHT22;24239;48.058;10.486;2023-06-04T06:04:31;20.90;92.50
38458;DHT22;24239;48.058;10.486;2023-06-04T06:06:57;20.90;92.60
38458;DHT22;24239;48.058;10.486;2023-06-04T06:09:24;20.80;92.70
38458;DHT22;24239;48.058;10.486;2023-06-04T06:11:51;20.70;92.80
38458;DHT22;24239;48.058;10.486;2023-06-04T06:14:18;20.90;93.60
38458;DHT22;24239;48.058;10.486;2023-06-04T06:16:51;21.00;93.10
38458;DHT22;24239;48.058;10.486;2023-06-04T06:19:20;20.50;93.30
38458;DHT22;24239;48.058;10.486;2023-06-04T06:21:49;20.60;93.40
38458;DHT22;24239;48.058;10.486;2023-06-04T06:24:18;19.70;94.20
38458;DHT22;24239;48.058;10.486;2023-06-04T06:26:48;18.90;95.30
38458;DHT22;24239;48.058;10.486;2023-06-04T06:29:16;18.20;96.40
38458;DHT22;24239;48.058;10.486;2023-06-04T06:31:45;17.70;97.10
38458;DHT22;24239;48.058;10.486;2023-06-04T06:34:11;17.40;98.00
38458;DHT22;24239;48.058;10.486;2023-06-04T06:36:42;17.10;98.50
38458;DHT22;24239;48.058;10.486;2023-06-04T06:39:10;17.00;98.80
38458;DHT22;24239;48.058;10.486;2023-06-04T06:41:39;16.80;99.40
38458;DHT22;24239;48.058;10.486;2023-06-04T06:44:05;16.70;99.80
38458;DHT22;24239;48.058;10.486;2023-06-04T06:46:32;16.70;99.90
38458;DHT22;24239;48.058;10.486;2023-06-04T06:48:58;16.60;99.90
38458;DHT22;24239;48.058;10.486;2023-06-04T06:51:24;16.60;99.90
38458;DHT22;24239;48.058;10.486;2023-06-04T06:53:49;16.60;99.90
38458;DHT22;24239;48.058;10.486;2023-06-04T06:56:17;16.50;99.90
38458;DHT22;24239;48.058;10.486;2023-06-04T06:58:45;16.50;99.90
38458;DHT22;24239;48.058;10.486;2023-06-04T07:01:12;16.50;99.90
38458;DHT22;24239;48.058;10.486;2023-06-04T07:03:41;16.50;99.90
38458;DHT22;24239;48.058;10.486;2023-06-04T07:06:08;16.30;99.90
38458;DHT22;24239;48.058;10.486;2023-06-04T07:08:36;16.30;99.90
38458;DHT22;24239;48.058;10.486;2023-06-04T07:11:05;16.30;99.90
38458;DHT22;24239;48.058;10.486;2023-06-04T07:13:32;16.40;99.90
38458;DHT22;24239;48.058;10.486;2023-06-04T07:16:00;16.50;99.90
38458;DHT22;24239;48.058;10.486;2023-06-04T07:18:27;16.70;99.90
38458;DHT22;24239;48.058;10.486;2023-06-04T07:20:54;16.50;99.90
38458;DHT22;24239;48.058;10.486;2023-06-04T07:23:21;16.60;99.90
38458;DHT22;24239;48.058;10.486;2023-06-04T07:25:49;16.70;99.90
38458;DHT22;24239;48.058;10.486;2023-06-04T07:28:18;16.80;99.90
38458;DHT22;24239;48.058;10.486;2023-06-04T07:30:45;16.80;99.90
38458;DHT22;24239;48.058;10.486;2023-06-04T07:33:11;16.80;99.90
38458;DHT22;24239;48.058;10.486;2023-06-04T07:35:37;16.90;99.90
38458;DHT22;24239;48.058;10.486;2023-06-04T07:38:03;17.00;99.90
38458;DHT22;24239;48.058;10.486;2023-06-04T07:40:31;17.00;99.90
38458;DHT22;24239;48.058;10.486;2023-06-04T07:42:57;17.00;99.90
38458;DHT22;24239;48.058;10.486;2023-06-04T07:45:22;17.00;99.90
38458;DHT22;24239;48.058;10.486;2023-06-04T07:47:49;17.20;99.90
38458;DHT22;24239;48.058;10.486;2023-06-04T07:50:14;17.30;99.90
38458;DHT22;24239;48.058;10.486;2023-06-04T07:52:40;17.30;99.90
38458;DHT22;24239;48.058;10.486;2023-06-04T07:55:06;17.40;99.90
38458;DHT22;24239;48.058;10.486;2023-06-04T07:57:35;17.30;99.90
38458;DHT22;24239;48.058;10.486;2023-06-04T08:00:02;17.40;99.90
38458;DHT22;24239;48.058;10.486;2023-06-04T08:02:32;17.40;99.90
38458;DHT22;24239;48.058;10.486;2023-06-04T08:05:00;17.40;99.90
38458;DHT22;24239;48.058;10.486;2023-06-04T08:07:27;17.40;99.90
38458;DHT22;24239;48.058;10.486;2023-06-04T08:09:55;17.40;99.90
38458;DHT22;24239;48.058;10.486;2023-06-04T08:12:23;17.60;99.90
38458;DHT22;24239;48.058;10.486;2023-06-04T08:14:53;17.70;99.90
38458;DHT22;24239;48.058;10.486;2023-06-04T08:17:23;17.80;99.90
38458;DHT22;24239;48.058;10.486;2023-06-04T08:19:51;18.00;99.90
38458;DHT22;24239;48.058;10.486;2023-06-04T08:22:19;18.10;99.90
38458;DHT22;24239;48.058;10.486;2023-06-04T08:24:48;18.10;99.10
38458;DHT22;24239;48.058;10.486;2023-06-04T08:27:16;18.30;99.90
38458;DHT22;24239;48.058;10.486;2023-06-04T08:29:46;18.40;99.70
38458;DHT22;24239;48.058;10.486;2023-06-04T08:32:14;18.40;99.80
38458;DHT22;24239;48.058;10.486;2023-06-04T08:34:46;18.40;99.50
38458;DHT22;24239;48.058;10.486;2023-06-04T08:37:13;18.30;99.40
38458;DHT22;24239;48.058;10.486;2023-06-04T08:39:43;18.50;99.90
38458;DHT22;24239;48.058;10.486;2023-06-04T08:42:21;18.60;99.90
38458;DHT22;24239;48.058;10.486;2023-06-04T08:44:50;18.70;99.70
38458;DHT22;24239;48.058;10.486;2023-06-04T08:47:21;18.80;99.20
38458;DHT22;24239;48.058;10.486;2023-06-04T08:49:59;18.80;99.40
38458;DHT22;24239;48.058;10.486;2023-06-04T08:52:27;18.90;99.10
38458;DHT22;24239;48.058;10.486;2023-06-04T08:54:55;18.90;98.30
38458;DHT22;24239;48.058;10.486;2023-06-04T08:57:24;19.00;98.50
38458;DHT22;24239;48.058;10.486;2023-06-04T08:59:53;19.00;98.70
38458;DHT22;24239;48.058;10.486;2023-06-04T09:02:20;19.10;98.00
38458;DHT22;24239;48.058;10.486;2023-06-04T09:04:49;19.10;98.30
38458;DHT22;24239;48.058;10.486;2023-06-04T09:07:19;19.10;97.80
38458;DHT22;24239;48.058;10.486;2023-06-04T09:09:48;19.30;98.50
38458;DHT22;24239;48.058;10.486;2023-06-04T09:12:17;19.40;97.60
38458;DHT22;24239;48.058;10.486;2023-06-04T09:14:44;19.50;97.20
38458;DHT22;24239;48.058;10.486;2023-06-04T09:17:10;19.50;97.50
38458;DHT22;24239;48.058;10.486;2023-06-04T09:19:37;19.60;96.90
38458;DHT22;24239;48.058;10.486;2023-06-04T09:22:05;19.60;96.80
38458;DHT22;24239;48.058;10.486;2023-06-04T09:24:40;19.80;96.80
38458;DHT22;24239;48.058;10.486;2023-06-04T09:27:20;19.80;95.80
38458;DHT22;24239;48.058;10.486;2023-06-04T09:29:50;20.10;96.30
38458;DHT22;24239;48.058;10.486;2023-06-04T09:34:49;20.40;95.80
38458;DHT22;24239;48.058;10.486;2023-06-04T09:37:20;20.30;94.70
38458;DHT22;24239;48.058;10.486;2023-06-04T09:39:54;20.40;95.90
38458;DHT22;24239;48.058;10.486;2023-06-04T09:42:25;20.30;94.80
38458;DHT22;24239;48.058;10.486;2023-06-04T09:44:51;20.40;94.70
38458;DHT22;24239;48.058;10.486;2023-06-04T09:47:20;20.50;94.80
38458;DHT22;24239;48.058;10.486;2023-06-04T09:49:49;20.40;94.80
38458;DHT22;24239;48.058;10.486;2023-06-04T09:52:19;20.40;95.10
38458;DHT22;24239;48.058;10.486;2023-06-04T09:54:46;20.50;94.70
38458;DHT22;24239;48.058;10.486;2023-06-04T09:57:15;20.70;95.10
38458;DHT22;24239;48.058;10.486;2023-06-04T09:59:44;20.90;94.70
38458;DHT22;24239;48.058;10.486;2023-06-04T10:02:13;20.90;92.70
38458;DHT22;24239;48.058;10.486;2023-06-04T10:04:46;21.00;91.80
38458;DHT22;24239;48.058;10.486;2023-06-04T10:07:15;20.90;91.30
38458;DHT22;24239;48.058;10.486;2023-06-04T10:09:47;20.90;91.90
38458;DHT22;24239;48.058;10.486;2023-06-04T10:12:14;21.00;91.50
38458;DHT22;24239;48.058;10.486;2023-06-04T10:17:12;20.90;90.90
38458;DHT22;24239;48.058;10.486;2023-06-04T10:19:42;20.90;91.20
38458;DHT22;24239;48.058;10.486;2023-06-04T10:22:09;20.90;91.40
38458;DHT22;24239;48.058;10.486;2023-06-04T10:24:38;20.80;91.40
38458;DHT22;24239;48.058;10.486;2023-06-04T10:27:06;20.90;91.80
38458;DHT22;24239;48.058;10.486;2023-06-04T10:29:37;21.10;91.60
38458;DHT22;24239;48.058;10.486;2023-06-04T10:32:05;21.30;91.20
38458;DHT22;24239;48.058;10.486;2023-06-04T10:34:31;21.10;90.70
38458;DHT22;24239;48.058;10.486;2023-06-04T10:37:01;20.90;91.10
38458;DHT22;24239;48.058;10.486;2023-06-04T10:39:32;20.90;91.30
38458;DHT22;24239;48.058;10.486;2023-06-04T10:44:47;20.80;90.70
38458;DHT22;24239;48.058;10.486;2023-06-04T10:49:46;20.70;89.30
38458;DHT22;24239;48.058;10.486;2023-06-04T10:52:14;20.90;90.30
38458;DHT22;24239;48.058;10.486;2023-06-04T10:54:41;21.10;91.70
38458;DHT22;24239;48.058;10.486;2023-06-04T10:57:14;21.30;90.50
38458;DHT22;24239;48.058;10.486;2023-06-04T10:59:53;21.50;90.40
38458;DHT22;24239;48.058;10.486;2023-06-04T11:02:20;21.60;90.10
38458;DHT22;24239;48.058;10.486;2023-06-04T11:05:10;21.60;89.80
38458;DHT22;24239;48.058;10.486;2023-06-04T11:07:45;21.70;90.40
38458;DHT22;24239;48.058;10.486;2023-06-04T11:10:14;21.80;90.70
38458;DHT22;24239;48.058;10.486;2023-06-04T11:15:12;21.80;88.90
38458;DHT22;24239;48.058;10.486;2023-06-04T11:17:51;21.90;89.00
38458;DHT22;24239;48.058;10.486;2023-06-04T11:20:19;22.00;88.70
38458;DHT22;24239;48.058;10.486;2023-06-04T11:22:58;21.80;88.60
38458;DHT22;24239;48.058;10.486;2023-06-04T11:25:26;21.90;89.40
38458;DHT22;24239;48.058;10.486;2023-06-04T11:27:58;21.80;89.60
38458;DHT22;24239;48.058;10.486;2023-06-04T11:30:27;21.70;87.60
38458;DHT22;24239;48.058;10.486;2023-06-04T11:33:01;21.50;87.20
38458;DHT22;24239;48.058;10.486;2023-06-04T11:35:27;21.40;87.70
38458;DHT22;24239;48.058;10.486;2023-06-04T11:37:56;21.50;89.10
38458;DHT22;24239;48.058;10.486;2023-06-04T11:40:24;21.50;87.80
38458;DHT22;24239;48.058;10.486;2023-06-04T11:42:53;21.60;88.00
38458;DHT22;24239;48.058;10.486;2023-06-04T11:45:23;21.70;87.60
38458;DHT22;24239;48.058;10.486;2023-06-04T11:47:54;21.80;86.70
38458;DHT22;24239;48.058;10.486;2023-06-04T11:50:27;22.00;86.70
38458;DHT22;24239;48.058;10.486;2023-06-04T11:52:56;22.20;87.10
38458;DHT22;24239;48.058;10.486;2023-06-04T11:55:25;22.40;84.50
38458;DHT22;24239;48.058;10.486;2023-06-04T11:57:51;22.50;89.70
38458;DHT22;24239;48.058;10.486;2023-06-04T12:00:17;22.60;84.80
38458;DHT22;24239;48.058;10.486;2023-06-04T12:02:50;22.60;83.80
38458;DHT22;24239;48.058;10.486;2023-06-04T12:05:20;22.70;83.90
38458;DHT22;24239;48.058;10.486;2023-06-04T12:07:49;22.70;83.60
38458;DHT22;24239;48.058;10.486;2023-06-04T12:10:19;22.50;84.10
38458;DHT22;24239;48.058;10.486;2023-06-04T12:12:46;22.50;84.30
38458;DHT22;24239;48.058;10.486;2023-06-04T12:15:18;22.40;82.80
38458;DHT22;24239;48.058;10.486;2023-06-04T12:17:52;22.40;84.30
38458;DHT22;24239;48.058;10.486;2023-06-04T12:23:03;22.50;82.90
38458;DHT22;24239;48.058;10.486;2023-06-04T12:25:30;22.10;82.50
38458;DHT22;24239;48.058;10.486;2023-06-04T12:27:59;22.10;84.80
38458;DHT22;24239;48.058;10.486;2023-06-04T12:30:35;22.00;82.60
38458;DHT22;24239;48.058;10.486;2023-06-04T12:33:03;22.20;83.70
38458;DHT22;24239;48.058;10.486;2023-06-04T12:35:33;22.30;83.50
38458;DHT22;24239;48.058;10.486;2023-06-04T12:38:04;22.40;81.90
38458;DHT22;24239;48.058;10.486;2023-06-04T12:40:34;22.60;81.40
38458;DHT22;24239;48.058;10.486;2023-06-04T12:43:03;22.70;80.20
38458;DHT22;24239;48.058;10.486;2023-06-04T12:45:36;22.80;82.00
38458;DHT22;24239;48.058;10.486;2023-06-04T12:48:04;22.80;80.60
38458;DHT22;24239;48.058;10.486;2023-06-04T12:50:30;22.70;80.60
38458;DHT22;24239;48.058;10.486;2023-06-04T12:52:57;22.50;80.60
38458;DHT22;24239;48.058;10.486;2023-06-04T12:55:25;22.70;83.00
38458;DHT22;24239;48.058;10.486;2023-06-04T12:57:52;22.90;81.40
38458;DHT22;24239;48.058;10.486;2023-06-04T13:00:19;23.00;79.80
38458;DHT22;24239;48.058;10.486;2023-06-04T13:02:48;23.20;79.10
38458;DHT22;24239;48.058;10.486;2023-06-04T13:05:14;23.40;79.30
38458;DHT22;24239;48.058;10.486;2023-06-04T13:07:40;23.30;80.10
38458;DHT22;24239;48.058;10.486;2023-06-04T13:10:06;23.10;78.50
38458;DHT22;24239;48.058;10.486;2023-06-04T13:12:31;23.00;78.70
38458;DHT22;24239;48.058;10.486;2023-06-04T13:15:00;23.10;79.00
38458;DHT22;24239;48.058;10.486;2023-06-04T13:17:29;23.40;79.90
38458;DHT22;24239;48.058;10.486;2023-06-04T13:19:57;23.40;77.50
38458;DHT22;24239;48.058;10.486;2023-06-04T13:22:25;23.60;80.00
38458;DHT22;24239;48.058;10.486;2023-06-04T13:24:55;23.60;79.30
38458;DHT22;24239;48.058;10.486;2023-06-04T13:27:22;23.60;82.30
38458;DHT22;24239;48.058;10.486;2023-06-04T13:29:47;23.80;78.10
38458;DHT22;24239;48.058;10.486;2023-06-04T13:32:17;23.50;78.00
38458;DHT22;24239;48.058;10.486;2023-06-04T13:34:45;23.40;77.50
38458;DHT22;24239;48.058;10.486;2023-06-04T13:37:12;23.20;77.10
38458;DHT22;24239;48.058;10.486;2023-06-04T13:39:41;23.20;76.80
38458;DHT22;24239;48.058;10.486;2023-06-04T13:42:10;23.40;78.10
38458;DHT22;24239;48.058;10.486;2023-06-04T13:44:38;23.60;79.40
38458;DHT22;24239;48.058;10.486;2023-06-04T13:47:05;23.70;78.80
38458;DHT22;24239;48.058;10.486;2023-06-04T13:49:33;23.80;78.30
38458;DHT22;24239;48.058;10.486;2023-06-04T13:52:01;23.90;77.80
38458;DHT22;24239;48.058;10.486;2023-06-04T13:54:28;24.00;77.00
38458;DHT22;24239;48.058;10.486;2023-06-04T13:56:55;24.00;76.90
38458;DHT22;24239;48.058;10.486;2023-06-04T13:59:22;24.10;76.90
38458;DHT22;24239;48.058;10.486;2023-06-04T14:01:48;24.00;76.40
38458;DHT22;24239;48.058;10.486;2023-06-04T14:04:15;23.70;77.50
38458;DHT22;24239;48.058;10.486;2023-06-04T14:06:44;23.40;76.80
38458;DHT22;24239;48.058;10.486;2023-06-04T14:09:12;23.30;77.40
38458;DHT22;24239;48.058;10.486;2023-06-04T14:11:39;23.30;76.60
38458;DHT22;24239;48.058;10.486;2023-06-04T14:14:05;23.40;78.00
38458;DHT22;24239;48.058;10.486;2023-06-04T14:16:32;23.40;78.90
38458;DHT22;24239;48.058;10.486;2023-06-04T14:18:59;23.30;77.70
38458;DHT22;24239;48.058;10.486;2023-06-04T14:21:26;23.30;76.40
38458;DHT22;24239;48.058;10.486;2023-06-04T14:23:54;23.30;77.50
38458;DHT22;24239;48.058;10.486;2023-06-04T14:26:19;23.20;76.30
38458;DHT22;24239;48.058;10.486;2023-06-04T14:28:47;23.30;76.90
38458;DHT22;24239;48.058;10.486;2023-06-04T14:31:13;23.10;76.80
38458;DHT22;24239;48.058;10.486;2023-06-04T14:33:39;23.10;77.10
38458;DHT22;24239;48.058;10.486;2023-06-04T14:36:07;22.90;76.20
38458;DHT22;24239;48.058;10.486;2023-06-04T14:38:34;23.00;76.80
38458;DHT22;24239;48.058;10.486;2023-06-04T14:41:01;23.10;76.50
38458;DHT22;24239;48.058;10.486;2023-06-04T14:43:28;23.20;78.30
38458;DHT22;24239;48.058;10.486;2023-06-04T14:45:57;23.00;77.30
38458;DHT22;24239;48.058;10.486;2023-06-04T14:48:26;23.00;78.90
38458;DHT22;24239;48.058;10.486;2023-06-04T14:50:54;22.90;76.40
38458;DHT22;24239;48.058;10.486;2023-06-04T14:53:21;22.60;76.80
38458;DHT22;24239;48.058;10.486;2023-06-04T14:55:48;22.50;77.20
38458;DHT22;24239;48.058;10.486;2023-06-04T14:58:14;22.60;78.70
38458;DHT22;24239;48.058;10.486;2023-06-04T15:00:41;22.60;77.40
38458;DHT22;24239;48.058;10.486;2023-06-04T15:03:07;22.50;77.80
38458;DHT22;24239;48.058;10.486;2023-06-04T15:05:33;22.70;78.80
38458;DHT22;24239;48.058;10.486;2023-06-04T15:08:01;22.80;77.50
38458;DHT22;24239;48.058;10.486;2023-06-04T15:10:28;23.10;78.40
38458;DHT22;24239;48.058;10.486;2023-06-04T15:12:57;23.10;76.40
38458;DHT22;24239;48.058;10.486;2023-06-04T15:15:24;23.00;76.30
38458;DHT22;24239;48.058;10.486;2023-06-04T15:17:51;22.90;77.40
38458;DHT22;24239;48.058;10.486;2023-06-04T15:20:17;22.70;75.80
38458;DHT22;24239;48.058;10.486;2023-06-04T15:22:43;22.60;75.70
38458;DHT22;24239;48.058;10.486;2023-06-04T15:25:09;22.70;76.10
38458;DHT22;24239;48.058;10.486;2023-06-04T15:27:37;22.70;75.80
38458;DHT22;24239;48.058;10.486;2023-06-04T15:30:04;22.80;75.90
38458;DHT22;24239;48.058;10.486;2023-06-04T15:32:29;22.90;75.00
38458;DHT22;24239;48.058;10.486;2023-06-04T15:34:56;23.00;76.10
38458;DHT22;24239;48.058;10.486;2023-06-04T15:37:25;23.10;76.30
38458;DHT22;24239;48.058;10.486;2023-06-04T15:39:51;22.80;75.60
38458;DHT22;24239;48.058;10.486;2023-06-04T15:42:17;22.50;76.10
38458;DHT22;24239;48.058;10.486;2023-06-04T15:44:45;22.40;77.30
38458;DHT22;24239;48.058;10.486;2023-06-04T15:47:17;22.30;77.60
38458;DHT22;24239;48.058;10.486;2023-06-04T15:49:44;22.20;78.30